Time;durP1;ratioP1;P1;durP2;ratioP2;P2;SDS_P1;SDS_P2;PMS_P1;PMS_P2;Temp;Humidity;BMP_temperature;BMP_pressure;BME280_temperature;BME280_humidity;BME280_pressure;Samples;Min_cycle;Max_cycle;Signal;HPM_P1;HPM_P2
2022/08/13 00:02:19;;;;;;;4.85;2.90;;;19.60;99.90;;;;;;5092863;28;20492;-75
2022/08/13 00:04:58;;;;;;;5.25;2.92;;;19.60;99.90;;;;;;5093099;28;20485;-74
2022/08/13 00:07:24;;;;;;;5.22;2.88;;;19.90;99.90;;;;;;5092889;28;20197;-75
2022/08/13 00:09:50;;;;;;;4.97;3.60;;;19.40;99.90;;;;;;5092575;28;20087;-78
2022/08/13 00:15:20;;;;;;;4.80;3.22;;;19.60;99.90;;;;;;5092652;28;20479;-75
2022/08/13 00:17:50;;;;;;;7.47;3.58;;;19.60;99.90;;;;;;5092690;28;20098;-74
2022/08/13 00:20:18;;;;;;;4.07;3.45;;;19.30;99.90;;;;;;5092915;28;20483;-76
2022/08/13 00:22:45;;;;;;;3.75;3.17;;;19.40;99.90;;;;;;5092731;28;20063;-75
2022/08/13 00:25:11;;;;;;;5.63;3.45;;;19.30;99.90;;;;;;5092217;28;20144;-75
2022/08/13 00:27:37;;;;;;;5.30;3.65;;;18.90;99.90;;;;;;5092416;28;20503;-76
2022/08/13 00:30:07;;;;;;;5.20;3.65;;;19.30;99.90;;;;;;5092526;28;20558;-74
2022/08/13 00:32:33;;;;;;;6.30;3.60;;;19.20;99.90;;;;;;5092295;28;20074;-74
2022/08/13 00:35:01;;;;;;;5.57;3.63;;;18.90;99.90;;;;;;5108230;28;20055;-75
2022/08/13 00:37:28;;;;;;;5.60;3.80;;;19.10;99.90;;;;;;5092217;28;20090;-73
2022/08/13 00:39:54;;;;;;;7.47;4.00;;;19.10;99.90;;;;;;5091936;28;20087;-73
2022/08/13 00:42:24;;;;;;;6.82;3.92;;;19.20;99.90;;;;;;5092118;28;20106;-74
2022/08/13 00:44:49;;;;;;;7.43;4.10;;;18.90;99.90;;;;;;5092272;28;20574;-74
2022/08/13 00:50:00;;;;;;;5.20;4.40;;;18.90;99.90;;;;;;5092066;28;20055;-73
2022/08/13 00:52:30;;;;;;;9.73;5.03;;;19.00;99.90;;;;;;5091953;28;20054;-73
2022/08/13 00:54:59;;;;;;;7.97;4.95;;;19.10;99.90;;;;;;5091739;28;20051;-73
2022/08/13 00:57:26;;;;;;;7.53;4.80;;;19.00;99.90;;;;;;5092120;28;20051;-74
2022/08/13 00:59:53;;;;;;;6.90;4.82;;;19.00;99.90;;;;;;5091833;28;20052;-74
2022/08/13 01:02:21;;;;;;;9.82;4.97;;;19.00;99.90;;;;;;5091987;28;20057;-73
2022/08/13 01:04:47;;;;;;;5.80;4.65;;;18.70;99.90;;;;;;5091815;28;20044;-74
2022/08/13 01:07:18;;;;;;;8.07;4.93;;;19.20;99.90;;;;;;5091946;28;20142;-73
2022/08/13 01:09:44;;;;;;;5.85;4.97;;;19.00;99.90;;;;;;5090658;28;20404;-74
2022/08/13 01:12:13;;;;;;;7.93;5.07;;;18.80;99.90;;;;;;5091761;28;20040;-73
2022/08/13 01:14:40;;;;;;;8.15;5.47;;;18.90;99.90;;;;;;5091844;28;20082;-75
2022/08/13 01:17:07;;;;;;;8.27;5.10;;;18.80;99.90;;;;;;5091671;28;20131;-75
2022/08/13 01:19:34;;;;;;;7.22;5.18;;;19.00;99.90;;;;;;5091642;28;20078;-75
2022/08/13 01:22:01;;;;;;;12.50;5.30;;;19.00;99.90;;;;;;5091950;28;20055;-75
2022/08/13 01:24:30;;;;;;;8.80;5.80;;;18.80;99.90;;;;;;5091572;28;20048;-74
2022/08/13 01:26:57;;;;;;;7.30;6.20;;;18.70;99.90;;;;;;5091790;28;20044;-74
2022/08/13 01:29:25;;;;;;;12.10;5.47;;;18.70;99.90;;;;;;5094789;28;20512;-74
2022/08/13 01:31:51;;;;;;;8.13;5.90;;;18.60;99.90;;;;;;5095781;28;20071;-74
2022/08/13 01:34:18;;;;;;;9.10;5.75;;;18.80;99.90;;;;;;5095638;28;20062;-75
2022/08/13 01:36:49;;;;;;;6.63;5.70;;;18.70;99.90;;;;;;5095517;28;20079;-74
2022/08/13 01:39:15;;;;;;;8.10;6.03;;;18.60;99.90;;;;;;5095937;28;20052;-75
2022/08/13 01:41:40;;;;;;;6.60;5.82;;;18.50;99.90;;;;;;5094349;28;20139;-75
2022/08/13 01:44:06;;;;;;;8.60;5.72;;;18.60;99.90;;;;;;5095523;28;20047;-73
2022/08/13 01:50:29;;;;;;;11.27;6.40;;;18.80;99.90;;;;;;5095370;28;20040;-76
2022/08/13 01:52:05;;;;;;;7.05;5.80;;;18.50;99.90;;;;;;5095166;28;20062;-74
2022/08/13 01:54:33;;;;;;;8.55;6.22;;;18.50;99.90;;;;;;5094133;28;20051;-71
2022/08/13 01:57:01;;;;;;;12.05;6.63;;;18.80;99.90;;;;;;5094067;28;20048;-75
2022/08/13 01:59:28;;;;;;;12.43;6.75;;;18.80;99.90;;;;;;5095386;28;20454;-72
2022/08/13 02:01:55;;;;;;;11.70;6.55;;;18.30;99.90;;;;;;5095425;28;20051;-75
2022/08/13 02:04:21;;;;;;;8.88;6.40;;;18.20;99.90;;;;;;5095252;28;20415;-73
2022/08/13 02:06:47;;;;;;;10.55;7.05;;;18.50;99.90;;;;;;5095046;28;20048;-74
2022/08/13 02:09:13;;;;;;;11.93;7.10;;;18.30;99.90;;;;;;5095110;28;20104;-75
2022/08/13 02:11:39;;;;;;;8.70;6.95;;;18.30;99.90;;;;;;5094034;28;20048;-75
2022/08/13 02:14:05;;;;;;;12.40;6.90;;;18.50;99.90;;;;;;5095297;28;20048;-75
2022/08/13 02:16:33;;;;;;;14.27;7.50;;;18.30;99.90;;;;;;5095174;28;20055;-75
2022/08/13 02:19:00;;;;;;;8.48;6.97;;;18.00;99.90;;;;;;5094012;28;20475;-74
2022/08/13 02:21:30;;;;;;;8.90;6.85;;;18.00;99.90;;;;;;5094692;28;20059;-74
2022/08/13 02:23:58;;;;;;;8.75;7.07;;;18.20;99.90;;;;;;5094921;28;20055;-75
2022/08/13 02:26:27;;;;;;;11.07;6.70;;;18.60;99.90;;;;;;5094690;28;20048;-74
2022/08/13 02:28:57;;;;;;;8.15;6.93;;;18.10;99.90;;;;;;5094841;28;20048;-74
2022/08/13 02:31:23;;;;;;;8.40;7.45;;;18.50;99.90;;;;;;5094619;28;20079;-74
2022/08/13 02:33:53;;;;;;;8.45;7.13;;;17.90;99.90;;;;;;5093196;28;20484;-77
2022/08/13 02:36:22;;;;;;;9.70;7.50;;;18.10;99.90;;;;;;5094454;28;20040;-74
2022/08/13 02:39:03;;;;;;;9.63;6.82;;;18.00;99.90;;;;;;5094310;28;20048;-74
2022/08/13 02:41:38;;;;;;;9.60;7.60;;;17.80;99.90;;;;;;5094760;28;20476;-75
2022/08/13 02:44:04;;;;;;;15.10;7.15;;;18.00;99.90;;;;;;5094372;28;20072;-74
2022/08/13 02:46:30;;;;;;;8.13;7.30;;;17.90;99.90;;;;;;5094404;28;20054;-74
2022/08/13 02:48:59;;;;;;;9.40;6.60;;;18.30;99.90;;;;;;5094430;28;20376;-74
2022/08/13 02:51:26;;;;;;;10.82;7.38;;;18.00;99.90;;;;;;5092754;28;20155;-74
2022/08/13 02:53:52;;;;;;;10.27;6.78;;;18.00;99.90;;;;;;5094381;28;20047;-74
2022/08/13 02:56:18;;;;;;;9.40;7.78;;;17.80;99.90;;;;;;5094288;28;20044;-76
2022/08/13 02:58:45;;;;;;;10.35;7.35;;;18.10;99.90;;;;;;5094318;28;20438;-75
2022/08/13 03:01:14;;;;;;;9.30;6.95;;;17.90;99.90;;;;;;5094094;28;20131;-75
2022/08/13 03:03:40;;;;;;;11.77;7.35;;;18.20;99.90;;;;;;5093712;28;20066;-74
2022/08/13 03:06:08;;;;;;;12.07;7.68;;;18.20;99.90;;;;;;5094249;28;20147;-75
2022/08/13 03:08:35;;;;;;;9.80;7.13;;;17.90;99.90;;;;;;5094173;28;20044;-75
2022/08/13 03:11:01;;;;;;;9.45;7.32;;;17.80;99.90;;;;;;5093894;28;20551;-75
2022/08/13 03:13:32;;;;;;;8.55;7.63;;;18.00;99.90;;;;;;5093845;28;20131;-74
2022/08/13 03:16:00;;;;;;;9.63;7.53;;;17.80;99.90;;;;;;5093905;28;20399;-75
2022/08/13 03:18:26;;;;;;;8.52;7.63;;;18.50;99.90;;;;;;5093431;28;20407;-74
2022/08/13 03:20:52;;;;;;;9.50;7.10;;;17.90;99.90;;;;;;5093892;28;20040;-75
2022/08/13 03:23:18;;;;;;;10.57;7.72;;;18.00;99.90;;;;;;5093645;28;20113;-76
2022/08/13 03:25:44;;;;;;;8.30;7.40;;;17.70;99.90;;;;;;5093667;28;20491;-74
2022/08/13 03:28:10;;;;;;;10.40;7.30;;;18.20;99.90;;;;;;5075782;28;20135;-76
2022/08/13 03:30:36;;;;;;;8.45;7.53;;;18.00;99.90;;;;;;5093439;28;20052;-76
2022/08/13 03:33:10;;;;;;;11.40;7.30;;;17.80;99.90;;;;;;5091789;28;20052;-76
2022/08/13 03:35:37;;;;;;;14.18;7.93;;;18.00;99.90;;;;;;5093473;28;20053;-76
2022/08/13 03:38:06;;;;;;;12.45;7.20;;;17.80;99.90;;;;;;5093447;28;20052;-74
2022/08/13 03:43:17;;;;;;;9.38;7.15;;;18.10;99.90;;;;;;5093238;28;20048;-74
2022/08/13 03:45:44;;;;;;;10.75;7.78;;;17.90;99.90;;;;;;5093478;28;20206;-74
2022/08/13 03:48:14;;;;;;;18.77;8.02;;;17.50;99.90;;;;;;5093007;28;20067;-76
2022/08/13 03:50:44;;;;;;;9.75;7.15;;;17.60;99.90;;;;;;5091743;28;20412;-75
2022/08/13 03:53:10;;;;;;;12.95;7.43;;;17.80;99.90;;;;;;5093024;28;20048;-75
2022/08/13 03:55:39;;;;;;;7.53;6.72;;;17.80;99.90;;;;;;5093151;28;20050;-76
2022/08/13 03:58:10;;;;;;;8.20;7.20;;;17.60;99.90;;;;;;5092999;28;20047;-76
2022/08/13 04:00:47;;;;;;;10.05;7.03;;;17.70;99.90;;;;;;5093392;28;20055;-77
2022/08/13 04:03:41;;;;;;;9.57;7.30;;;17.50;99.90;;;;;;5093105;28;20102;-77
2022/08/13 04:06:13;;;;;;;9.10;6.70;;;17.60;99.90;;;;;;5092002;28;20089;-77
2022/08/13 04:08:39;;;;;;;7.63;6.38;;;17.60;99.90;;;;;;5091754;28;20040;-76
2022/08/13 04:11:12;;;;;;;;;;;17.90;99.90;;;;;;5093268;28;20044;-73
2022/08/13 04:13:39;;;;;;;8.77;6.78;;;17.60;99.90;;;;;;5091646;28;19920;-75
2022/08/13 04:16:07;;;;;;;9.68;6.97;;;17.70;99.90;;;;;;5092493;28;20476;-75
2022/08/13 04:18:35;;;;;;;10.07;6.60;;;17.60;99.90;;;;;;5092688;28;20086;-76
2022/08/13 04:21:04;;;;;;;13.65;7.57;;;17.30;99.90;;;;;;5092476;28;20044;-76
2022/08/13 04:23:33;;;;;;;11.60;6.78;;;17.70;99.90;;;;;;5092584;28;20043;-76
2022/08/13 04:25:59;;;;;;;9.75;6.55;;;17.50;99.90;;;;;;5091421;28;20178;-74
2022/08/13 04:28:26;;;;;;;9.88;7.50;;;17.60;99.90;;;;;;5092327;28;20048;-76
2022/08/13 04:30:52;;;;;;;8.48;6.50;;;17.50;99.90;;;;;;5091989;28;20139;-76
2022/08/13 04:33:18;;;;;;;11.75;7.18;;;17.40;99.90;;;;;;5092400;28;20400;-76
2022/08/13 04:35:45;;;;;;;14.60;7.57;;;17.40;99.90;;;;;;5092343;28;20176;-76
2022/08/13 04:38:15;;;;;;;9.02;7.22;;;17.40;99.90;;;;;;5092529;28;20047;-75
2022/08/13 04:40:43;;;;;;;13.52;7.05;;;17.60;99.90;;;;;;5092487;28;20096;-73
2022/08/13 04:43:10;;;;;;;11.73;7.20;;;17.60;99.90;;;;;;5092338;28;20357;-76
2022/08/13 04:45:37;;;;;;;11.38;7.03;;;17.60;99.90;;;;;;5091895;28;20040;-77
2022/08/13 04:48:09;;;;;;;10.40;6.85;;;17.90;99.90;;;;;;5091972;28;20063;-76
2022/08/13 04:50:36;;;;;;;9.80;6.28;;;17.70;99.90;;;;;;5092393;28;20131;-76
2022/08/13 04:53:23;;;;;;;10.23;7.05;;;17.70;99.90;;;;;;5092018;28;20761;-76
2022/08/13 04:55:49;;;;;;;9.60;6.78;;;17.70;99.90;;;;;;5091718;28;20055;-77
2022/08/13 04:58:15;;;;;;;7.93;6.55;;;17.40;99.90;;;;;;5091989;28;20515;-77
2022/08/13 05:00:41;;;;;;;11.95;6.85;;;17.80;99.90;;;;;;5090402;28;20048;-76
2022/08/13 05:03:15;;;;;;;7.65;6.82;;;17.60;99.90;;;;;;5090945;28;20707;-78
2022/08/13 05:05:43;;;;;;;11.57;6.90;;;18.00;99.90;;;;;;5091999;28;20044;-78
2022/08/13 05:08:10;;;;;;;10.65;6.63;;;18.10;99.90;;;;;;5091908;28;20044;-76
2022/08/13 05:10:38;;;;;;;10.02;6.45;;;17.60;99.90;;;;;;5091932;28;20101;-76
2022/08/13 05:13:18;;;;;;;9.77;6.80;;;18.20;99.90;;;;;;5091720;28;20094;-76
2022/08/13 05:15:44;;;;;;;8.18;6.25;;;16.70;99.90;;;;;;5091514;28;20488;-78
2022/08/13 05:18:09;;;;;;;12.13;6.85;;;18.10;99.90;;;;;;5090596;28;20055;-76
2022/08/13 05:20:36;;;;;;;12.10;6.07;;;18.30;99.90;;;;;;5091779;28;20044;-77
2022/08/13 05:23:13;;;;;;;8.10;6.10;;;17.80;99.90;;;;;;5090486;28;20443;-76
2022/08/13 05:25:42;;;;;;;10.93;6.55;;;18.10;99.90;;;;;;5091643;28;20507;-77
2022/08/13 05:28:09;;;;;;;7.60;6.20;;;18.30;99.90;;;;;;5090522;28;20039;-77
2022/08/13 05:30:38;;;;;;;12.30;6.55;;;18.50;99.90;;;;;;5091665;28;20407;-77
2022/08/13 05:33:26;;;;;;;8.55;6.47;;;18.20;99.90;;;;;;5091631;28;20055;-77
2022/08/13 05:35:55;;;;;;;10.18;6.68;;;18.50;99.90;;;;;;5090175;28;20801;-74
2022/08/13 05:38:23;;;;;;;7.63;5.88;;;18.50;99.90;;;;;;5089327;28;20050;-75
2022/08/13 05:40:55;;;;;;;10.80;6.32;;;18.70;99.90;;;;;;5089766;28;20075;-78
2022/08/13 05:43:24;;;;;;;9.38;6.50;;;18.60;99.90;;;;;;5086707;28;20044;-76
2022/08/13 05:45:59;;;;;;;7.68;5.95;;;18.80;99.90;;;;;;5086352;28;20063;-78
2022/08/13 05:48:30;;;;;;;11.00;5.90;;;18.70;99.90;;;;;;5086106;28;20052;-78
2022/08/13 05:51:00;;;;;;;11.15;6.82;;;18.90;99.90;;;;;;5089747;28;20040;-79
2022/08/13 05:53:27;;;;;;;7.72;6.32;;;19.00;99.90;;;;;;5090259;28;20044;-76
2022/08/13 05:55:54;;;;;;;7.57;6.43;;;18.90;99.90;;;;;;5090354;28;20044;-76
2022/08/13 05:58:21;;;;;;;10.32;6.75;;;18.90;99.90;;;;;;5088597;28;20052;-77
2022/08/13 06:03:31;;;;;;;8.43;6.20;;;19.50;99.90;;;;;;5085966;28;20062;-77
2022/08/13 06:06:02;;;;;;;12.95;6.80;;;18.80;99.90;;;;;;5089900;28;20123;-74
2022/08/13 06:08:34;;;;;;;8.02;6.80;;;18.90;99.90;;;;;;5085400;28;20062;-75
2022/08/13 06:11:06;;;;;;;8.88;6.47;;;19.50;99.90;;;;;;5086580;28;20052;-77
2022/08/13 06:13:33;;;;;;;9.50;6.65;;;19.30;99.90;;;;;;5085567;28;20502;-79
2022/08/13 06:16:01;;;;;;;10.35;6.00;;;19.60;99.90;;;;;;5093647;28;20479;-78
2022/08/13 06:18:32;;;;;;;7.97;6.30;;;19.70;99.90;;;;;;5092656;28;20127;-77
2022/08/13 06:21:00;;;;;;;14.15;6.68;;;19.90;99.90;;;;;;5092959;28;20052;-79
2022/08/13 06:23:29;;;;;;;8.68;5.90;;;19.60;99.90;;;;;;5093074;28;20040;-80
2022/08/13 06:25:57;;;;;;;9.18;5.60;;;19.90;99.90;;;;;;5094759;28;20059;-74
2022/08/13 06:28:29;;;;;;;8.75;6.03;;;19.80;99.90;;;;;;5094466;28;20043;-79
2022/08/13 06:30:58;;;;;;;14.30;5.68;;;20.30;99.90;;;;;;5094893;28;20113;-73
2022/08/13 06:33:25;;;;;;;8.98;5.15;;;20.00;99.90;;;;;;5093100;28;20128;-78
2022/08/13 06:35:57;;;;;;;7.53;5.00;;;20.30;99.90;;;;;;5094572;28;20054;-79
2022/08/13 06:38:36;;;;;;;5.60;4.70;;;20.50;99.90;;;;;;5094616;28;20043;-74
2022/08/13 06:41:05;;;;;;;6.28;5.00;;;20.70;99.90;;;;;;5092866;28;20124;-76
2022/08/13 06:43:36;;;;;;;7.05;4.65;;;20.60;99.90;;;;;;5089294;28;20050;-78
2022/08/13 06:46:05;;;;;;;7.40;4.80;;;20.60;99.90;;;;;;5088877;28;20483;-79
2022/08/13 06:48:35;;;;;;;9.70;4.80;;;20.90;99.90;;;;;;5088958;28;20048;-77
2022/08/13 06:51:06;;;;;;;5.40;4.25;;;21.00;99.90;;;;;;5092971;28;20043;-80
2022/08/13 06:53:35;;;;;;;8.55;4.78;;;21.30;99.90;;;;;;5092511;28;20059;-78
2022/08/13 06:56:06;;;;;;;7.40;4.30;;;20.90;99.90;;;;;;5092912;28;20109;-78
2022/08/13 06:58:32;;;;;;;7.95;4.15;;;21.70;99.90;;;;;;5092391;28;20660;-79
2022/08/13 07:00:58;;;;;;;6.97;4.38;;;21.50;99.90;;;;;;5092616;28;20043;-80
2022/08/13 07:03:30;;;;;;;6.80;4.00;;;21.40;99.90;;;;;;5094229;28;20373;-80
2022/08/13 07:05:57;;;;;;;4.13;3.08;;;21.60;99.90;;;;;;5094229;28;20089;-80
2022/08/13 07:08:27;;;;;;;5.05;3.80;;;21.80;99.90;;;;;;5093032;28;20131;-79
2022/08/13 07:13:44;;;;;;;7.32;3.42;;;22.30;99.90;;;;;;5093997;28;20062;-78
2022/08/13 07:16:14;;;;;;;7.95;3.28;;;22.30;99.90;;;;;;5093839;28;20052;-77
2022/08/13 07:18:40;;;;;;;6.30;3.17;;;22.30;99.90;;;;;;5094301;28;20403;-76
2022/08/13 07:21:10;;;;;;;8.40;2.85;;;22.50;99.90;;;;;;5094098;28;20043;-79
2022/08/13 07:23:40;;;;;;;6.05;2.90;;;22.80;99.90;;;;;;5094041;28;20392;-80
2022/08/13 07:26:06;;;;;;;6.72;2.90;;;22.90;99.90;;;;;;5092459;28;20127;-80
2022/08/13 07:28:33;;;;;;;3.90;2.70;;;22.70;99.90;;;;;;5092659;28;20048;-79
2022/08/13 07:31:00;;;;;;;3.97;2.60;;;22.90;99.90;;;;;;5092257;28;20128;-80
2022/08/13 07:33:27;;;;;;;7.05;3.10;;;23.00;99.90;;;;;;5092543;28;20044;-78
2022/08/13 07:35:54;;;;;;;5.45;3.22;;;23.20;99.90;;;;;;5093744;28;20051;-80
2022/08/13 07:38:20;;;;;;;3.42;2.90;;;23.50;99.90;;;;;;5093495;28;20052;-77
2022/08/13 07:40:50;;;;;;;11.23;2.78;;;23.60;99.90;;;;;;5093445;28;20044;-78
2022/08/13 07:43:19;;;;;;;4.50;3.10;;;23.90;99.90;;;;;;5092666;28;20052;-74
2022/08/13 07:46:07;;;;;;;3.95;2.97;;;23.70;99.90;;;;;;5093716;28;20337;-79
2022/08/13 07:48:34;;;;;;;7.55;2.70;;;24.00;99.90;;;;;;5093344;28;20075;-76
2022/08/13 07:51:02;;;;;;;4.93;2.50;;;23.90;99.90;;;;;;5093372;28;20052;-72
2022/08/13 07:53:28;;;;;;;5.72;2.42;;;24.40;99.90;;;;;;5093155;28;20059;-77
2022/08/13 07:55:55;;;;;;;3.78;2.72;;;24.10;99.90;;;;;;5092697;28;20525;-81
2022/08/13 07:58:26;;;;;;;4.90;2.38;;;24.20;99.90;;;;;;5093405;28;20083;-80
2022/08/13 08:00:53;;;;;;;9.23;2.47;;;24.50;99.90;;;;;;5093165;28;20127;-78
2022/08/13 08:03:19;;;;;;;5.18;2.38;;;24.60;99.90;;;;;;5093293;28;20090;-79
2022/08/13 08:05:46;;;;;;;5.10;2.40;;;24.90;99.90;;;;;;5093000;28;20055;-79
2022/08/13 08:08:13;;;;;;;9.05;2.92;;;24.70;99.90;;;;;;5091676;28;20047;-80
2022/08/13 08:10:42;;;;;;;3.60;2.45;;;24.80;99.90;;;;;;5093141;28;20130;-80
2022/08/13 08:13:10;;;;;;;2.78;2.00;;;25.10;99.90;;;;;;5091713;28;20535;-80
2022/08/13 08:15:36;;;;;;;7.35;2.10;;;25.20;99.90;;;;;;5092971;28;20070;-80
2022/08/13 08:18:02;;;;;;;5.25;2.50;;;25.20;99.90;;;;;;5092765;28;20048;-80
2022/08/13 08:20:28;;;;;;;5.28;2.28;;;25.70;99.90;;;;;;5092866;28;20396;-74
2022/08/13 08:22:54;;;;;;;4.22;1.85;;;25.50;99.90;;;;;;5092257;28;20094;-78
2022/08/13 08:25:24;;;;;;;4.95;2.03;;;25.30;99.90;;;;;;5092825;28;20047;-72
2022/08/13 08:27:49;;;;;;;12.63;2.30;;;25.60;99.90;;;;;;5092585;28;20056;-80
2022/08/13 08:30:17;;;;;;;2.35;1.92;;;25.60;99.90;;;;;;5092568;28;20109;-78
2022/08/13 08:32:51;;;;;;;5.68;2.10;;;25.80;99.90;;;;;;5092233;28;20102;-79
2022/08/13 08:35:17;;;;;;;2.95;2.03;;;25.70;99.90;;;;;;5092492;28;20044;-73
2022/08/13 08:43:16;;;;;;;7.15;2.10;;;26.40;99.90;;;;;;5091379;28;20150;-80
2022/08/13 08:45:42;;;;;;;5.03;1.92;;;26.70;99.90;;;;;;5092254;28;20044;-76
2022/08/13 08:48:07;;;;;;;4.88;2.00;;;26.40;99.90;;;;;;5091191;28;20537;-79
2022/08/13 08:50:33;;;;;;;5.40;1.88;;;26.70;99.90;;;;;;5092503;28;20074;-81
2022/08/13 08:53:19;;;;;;;3.25;1.60;;;26.60;99.90;;;;;;5091873;28;20566;-78
2022/08/13 08:55:46;;;;;;;2.70;1.80;;;26.60;99.90;;;;;;5091164;28;20176;-75
2022/08/13 08:58:13;;;;;;;4.25;1.80;;;27.00;99.90;;;;;;5092112;28;20052;-80
2022/08/13 09:00:40;;;;;;;5.55;1.70;;;26.80;99.90;;;;;;5092001;28;20504;-78
2022/08/13 09:03:07;;;;;;;6.22;1.80;;;27.50;99.90;;;;;;5092141;28;20046;-79
2022/08/13 09:05:34;;;;;;;5.93;2.00;;;27.00;99.90;;;;;;5092078;28;20078;-81
2022/08/13 09:08:02;;;;;;;2.60;1.90;;;27.30;99.90;;;;;;5090515;28;20120;-77
2022/08/13 09:10:33;;;;;;;8.50;1.90;;;27.20;99.90;;;;;;5090642;28;20448;-78
2022/08/13 09:13:03;;;;;;;4.60;1.50;;;27.10;99.90;;;;;;5091970;28;20037;-77
2022/08/13 09:15:33;;;;;;;2.75;1.77;;;27.50;99.90;;;;;;5091912;28;20079;-82
2022/08/13 09:18:01;;;;;;;4.45;1.80;;;27.80;99.90;;;;;;5092039;28;20052;-80
2022/08/13 09:20:29;;;;;;;6.32;1.60;;;27.80;99.90;;;;;;5092019;28;20131;-71
2022/08/13 09:23:12;;;;;;;2.63;1.58;;;27.70;99.10;;;;;;5091607;28;20074;-80
2022/08/13 09:25:45;;;;;;;4.25;1.85;;;28.10;99.70;;;;;;5091934;28;20048;-76
2022/08/13 09:28:10;;;;;;;3.53;1.50;;;27.90;98.50;;;;;;5091841;28;20048;-75
2022/08/13 09:30:38;;;;;;;2.40;1.50;;;28.00;97.80;;;;;;5091920;28;20051;-72
2022/08/13 09:33:04;;;;;;;4.38;1.50;;;28.00;97.70;;;;;;5091991;28;20056;-74
2022/08/13 09:35:31;;;;;;;13.90;1.67;;;28.10;97.30;;;;;;5091497;28;20131;-73
2022/08/13 09:37:59;;;;;;;6.32;1.60;;;28.20;96.90;;;;;;5091822;28;20047;-79
2022/08/13 09:40:30;;;;;;;4.70;1.60;;;28.40;97.30;;;;;;5091800;28;20376;-72
2022/08/13 09:43:02;;;;;;;2.58;1.40;;;28.60;96.90;;;;;;5091898;28;20047;-80
2022/08/13 09:45:29;;;;;;;2.30;1.40;;;28.70;96.50;;;;;;5091615;28;20055;-75
2022/08/13 09:47:56;;;;;;;2.28;1.50;;;28.40;96.40;;;;;;5091540;28;20059;-81
2022/08/13 09:50:24;;;;;;;4.07;1.63;;;28.50;96.40;;;;;;5094366;28;20052;-77
2022/08/13 09:52:52;;;;;;;3.95;1.70;;;28.50;96.40;;;;;;5095686;28;20075;-81
2022/08/13 09:55:19;;;;;;;2.45;1.35;;;28.70;96.20;;;;;;5095772;28;20503;-82
2022/08/13 09:57:52;;;;;;;3.25;1.50;;;29.00;96.20;;;;;;5091109;28;20036;-79
2022/08/13 10:00:21;;;;;;;4.93;1.67;;;28.40;95.50;;;;;;5095483;28;20048;-81
2022/08/13 10:02:50;;;;;;;3.75;1.42;;;28.90;96.10;;;;;;5095270;28;20044;-73
2022/08/13 10:05:18;;;;;;;4.78;1.52;;;28.90;94.70;;;;;;5095277;28;20051;-72
2022/08/13 10:07:45;;;;;;;4.55;1.67;;;29.00;94.90;;;;;;5095192;28;20071;-80
2022/08/13 10:10:11;;;;;;;1.85;1.40;;;29.20;95.20;;;;;;5095253;28;20168;-79
2022/08/13 10:12:37;;;;;;;4.32;1.40;;;29.00;94.90;;;;;;5095234;28;20047;-80
2022/08/13 10:15:03;;;;;;;3.28;1.77;;;29.30;94.70;;;;;;5095216;28;20138;-75
2022/08/13 10:17:49;;;;;;;4.18;1.92;;;29.40;94.50;;;;;;5095480;28;20383;-81
2022/08/13 10:20:36;;;;;;;2.20;1.47;;;29.30;93.90;;;;;;5093738;28;20054;-81
2022/08/13 10:23:05;;;;;;;6.30;1.70;;;29.50;94.10;;;;;;5094969;28;20048;-80
2022/08/13 10:25:31;;;;;;;2.70;1.30;;;29.50;94.20;;;;;;5095003;28;20054;-76
2022/08/13 10:27:57;;;;;;;4.32;1.50;;;29.80;94.00;;;;;;5094695;28;20404;-78
2022/08/13 10:30:27;;;;;;;2.75;1.60;;;29.70;93.80;;;;;;5095182;28;20046;-81
2022/08/13 10:32:55;;;;;;;5.43;1.63;;;29.60;93.40;;;;;;5094688;28;20095;-82
2022/08/13 10:35:24;;;;;;;3.15;1.60;;;29.90;94.10;;;;;;5094442;28;20400;-80
2022/08/13 10:37:53;;;;;;;4.85;2.05;;;29.60;93.70;;;;;;5094637;28;20131;-81
2022/08/13 10:40:20;;;;;;;3.22;1.50;;;29.90;93.40;;;;;;5094620;28;20039;-80
2022/08/13 10:42:46;;;;;;;5.72;1.55;;;29.60;93.10;;;;;;5094436;28;20051;-78
2022/08/13 10:45:13;;;;;;;4.65;1.65;;;29.90;93.30;;;;;;5094622;28;20048;-78
2022/08/13 10:47:54;;;;;;;3.08;1.58;;;29.90;93.70;;;;;;5094333;28;20503;-80
2022/08/13 10:50:26;;;;;;;4.40;1.77;;;30.00;92.90;;;;;;5094610;28;20036;-70
2022/08/13 10:52:52;;;;;;;3.90;1.50;;;30.00;92.80;;;;;;5094364;28;20385;-74
2022/08/13 10:55:18;;;;;;;4.55;1.40;;;30.30;92.80;;;;;;5094215;28;20048;-78
2022/08/13 10:57:46;;;;;;;2.78;1.60;;;30.10;92.60;;;;;;5094417;28;20055;-79
2022/08/13 11:00:14;;;;;;;3.88;1.60;;;30.00;92.60;;;;;;5094377;28;20056;-72
2022/08/13 11:02:40;;;;;;;1.50;1.40;;;30.20;92.20;;;;;;5094043;28;20526;-74
2022/08/13 11:05:11;;;;;;;2.90;1.67;;;30.70;91.60;;;;;;5094236;28;20162;-76
2022/08/13 11:07:38;;;;;;;1.50;1.40;;;30.60;92.30;;;;;;5093958;28;20496;-77
2022/08/13 11:10:06;;;;;;;3.03;1.55;;;30.80;91.90;;;;;;5094216;28;20078;-81
2022/08/13 11:12:33;;;;;;;2.60;1.63;;;30.60;91.10;;;;;;5093990;28;20044;-79
2022/08/13 11:15:00;;;;;;;2.10;1.45;;;30.70;91.40;;;;;;5093118;28;20048;-82
2022/08/13 11:17:27;;;;;;;2.22;1.60;;;30.80;91.30;;;;;;5093857;28;20048;-82
2022/08/13 11:19:53;;;;;;;6.70;1.55;;;31.00;91.80;;;;;;5093970;28;20508;-77
2022/08/13 11:22:28;;;;;;;7.07;1.70;;;30.90;91.10;;;;;;5094211;28;20048;-76
2022/08/13 11:24:59;;;;;;;10.55;2.92;;;30.90;90.70;;;;;;5094198;28;20051;-74
2022/08/13 11:27:25;;;;;;;6.03;1.60;;;30.70;89.40;;;;;;5093898;28;20083;-73
2022/08/13 11:29:53;;;;;;;2.88;1.35;;;31.00;90.20;;;;;;5093793;28;20044;-78
2022/08/13 11:32:19;;;;;;;2.45;1.50;;;30.70;90.40;;;;;;5093338;28;20056;-73
2022/08/13 11:34:45;;;;;;;3.80;1.70;;;30.90;90.10;;;;;;5093556;28;20055;-80
2022/08/13 11:37:11;;;;;;;3.20;1.48;;;31.20;90.20;;;;;;5093734;28;20458;-77
2022/08/13 11:39:37;;;;;;;3.30;1.48;;;31.10;90.00;;;;;;5093747;28;20051;-80
2022/08/13 11:42:03;;;;;;;5.13;1.70;;;31.00;90.10;;;;;;5093768;28;20056;-79
2022/08/13 11:44:28;;;;;;;3.72;1.20;;;31.40;90.10;;;;;;5093633;28;20048;-77
2022/08/13 11:46:54;;;;;;;2.75;1.30;;;31.00;88.50;;;;;;5093079;28;20062;-79
2022/08/13 11:49:21;;;;;;;4.55;1.35;;;31.50;89.00;;;;;;5091969;28;20039;-79
2022/08/13 11:51:47;;;;;;;2.90;1.50;;;31.20;89.20;;;;;;5093213;28;20137;-80
2022/08/13 11:54:13;;;;;;;4.70;1.52;;;31.40;88.70;;;;;;5093410;28;20083;-78
2022/08/13 11:56:39;;;;;;;5.35;1.50;;;31.50;88.50;;;;;;5075206;28;20466;-78
2022/08/13 11:59:04;;;;;;;14.70;1.90;;;31.50;88.80;;;;;;5092991;28;20135;-75
2022/08/13 12:01:30;;;;;;;4.55;1.70;;;31.20;87.00;;;;;;5092864;28;20051;-80
2022/08/13 12:03:57;;;;;;;1.63;1.38;;;31.30;87.00;;;;;;5091824;28;20086;-81
2022/08/13 12:06:22;;;;;;;2.08;1.60;;;31.20;86.40;;;;;;5093202;28;20101;-76
2022/08/13 12:08:48;;;;;;;2.95;1.42;;;31.40;90.10;;;;;;5092975;28;20048;-80
2022/08/13 12:11:15;;;;;;;1.83;1.50;;;31.40;86.40;;;;;;5092928;28;20136;-78
2022/08/13 12:13:41;;;;;;;3.10;1.60;;;31.50;86.80;;;;;;5092460;28;20047;-80
2022/08/13 12:16:06;;;;;;;4.45;1.70;;;31.40;87.50;;;;;;5092429;28;20097;-77
2022/08/13 12:18:32;;;;;;;1.90;1.50;;;31.40;86.60;;;;;;5092612;28;20094;-73
2022/08/13 12:20:57;;;;;;;4.25;1.40;;;31.60;85.50;;;;;;5092950;28;20052;-78
2022/08/13 12:23:24;;;;;;;2.63;1.50;;;31.50;85.70;;;;;;5091816;28;20479;-78
2022/08/13 12:25:49;;;;;;;4.20;1.67;;;31.50;85.20;;;;;;5092599;28;20036;-79
2022/08/13 12:28:23;;;;;;;1.85;1.30;;;31.60;86.40;;;;;;5091445;28;20137;-79
2022/08/13 12:30:51;;;;;;;8.73;1.67;;;32.00;85.70;;;;;;5092256;28;20063;-78
2022/08/13 12:33:18;;;;;;;2.40;1.65;;;32.10;86.20;;;;;;5092140;28;20056;-78
2022/08/13 12:35:45;;;;;;;6.45;1.58;;;32.20;86.20;;;;;;5092639;28;20052;-79
2022/08/13 12:38:13;;;;;;;3.33;1.33;;;32.30;85.80;;;;;;5092441;28;20044;-69
2022/08/13 12:40:41;;;;;;;2.30;1.23;;;31.70;84.80;;;;;;5092441;28;20388;-78
2022/08/13 12:43:07;;;;;;;3.38;1.63;;;32.20;84.70;;;;;;5091153;28;20077;-76
2022/08/13 12:45:35;;;;;;;4.65;1.80;;;32.20;84.20;;;;;;5091969;28;20419;-76
2022/08/13 12:48:03;;;;;;;3.78;1.70;;;32.00;83.50;;;;;;5092214;28;20051;-80
2022/08/13 12:50:29;;;;;;;4.22;1.60;;;31.90;83.60;;;;;;5092322;28;20054;-72
2022/08/13 12:52:55;;;;;;;4.53;1.40;;;31.60;83.60;;;;;;5092016;28;20044;-78
2022/08/13 12:55:20;;;;;;;3.00;1.50;;;31.90;83.50;;;;;;5092193;28;20044;-74
2022/08/13 12:57:46;;;;;;;2.33;1.60;;;32.10;82.50;;;;;;5091065;28;20500;-71
2022/08/13 13:00:12;;;;;;;1.63;1.30;;;31.90;81.20;;;;;;5091708;28;20503;-78
2022/08/13 13:02:39;;;;;;;5.05;1.30;;;32.00;81.50;;;;;;5092027;28;20040;-77
2022/08/13 13:05:06;;;;;;;3.70;1.77;;;32.00;81.80;;;;;;5090849;28;20504;-78
2022/08/13 13:07:32;;;;;;;1.63;1.52;;;32.30;82.50;;;;;;5092288;28;20117;-68
2022/08/13 13:09:59;;;;;;;4.03;1.30;;;32.50;82.30;;;;;;5091897;28;20369;-78
2022/08/13 13:12:26;;;;;;;7.60;1.65;;;32.40;81.20;;;;;;5092143;28;20056;-75
2022/08/13 13:14:52;;;;;;;2.50;1.50;;;32.10;80.70;;;;;;5091689;28;20375;-74